Time;durP1;ratioP1;P1;durP2;ratioP2;P2;SDS_P1;SDS_P2;PMS_P1;PMS_P2;Temp;Humidity;BMP_temperature;BMP_pressure;BME280_temperature;BME280_humidity;BME280_pressure;Samples;Min_cycle;Max_cycle;Signal;HPM_P1;HPM_P2
2021/08/25 00:01:46;;;;;;;14.70;10.97;;;12.10;99.90;;;;;;5037208;28;20183;-78
2021/08/25 00:04:12;;;;;;;12.20;11.10;;;12.30;99.90;;;;;;5042470;28;20185;-78
2021/08/25 00:06:37;;;;;;;12.07;10.77;;;12.30;99.90;;;;;;5046067;28;20179;-78
2021/08/25 00:09:04;;;;;;;13.53;11.70;;;12.50;99.90;;;;;;5044285;28;20608;-78
2021/08/25 00:11:30;;;;;;;14.50;12.45;;;12.20;99.90;;;;;;5043304;28;20273;-78
2021/08/25 00:13:55;;;;;;;15.30;12.73;;;12.40;99.90;;;;;;5042999;28;20289;-78
2021/08/25 00:16:21;;;;;;;17.00;12.70;;;12.30;99.90;;;;;;5045918;28;20222;-78
2021/08/25 00:18:47;;;;;;;14.73;12.50;;;12.00;99.90;;;;;;5048368;28;20214;-78
2021/08/25 00:21:13;;;;;;;16.30;12.50;;;12.40;99.90;;;;;;5045329;28;20417;-77
2021/08/25 00:23:38;;;;;;;16.37;13.13;;;12.20;99.90;;;;;;5045043;28;20276;-79
2021/08/25 00:26:04;;;;;;;13.40;12.07;;;11.90;99.90;;;;;;5046275;28;20242;-79
2021/08/25 00:28:30;;;;;;;15.23;12.77;;;11.90;99.90;;;;;;5047740;28;20182;-78
2021/08/25 00:30:55;;;;;;;15.60;13.30;;;12.20;99.90;;;;;;5046429;28;20694;-79
2021/08/25 00:33:21;;;;;;;16.77;13.83;;;12.10;99.90;;;;;;5043053;28;20182;-78
2021/08/25 00:35:46;;;;;;;17.07;13.87;;;12.30;99.90;;;;;;5025750;28;20234;-78
2021/08/25 00:38:12;;;;;;;14.20;12.70;;;12.10;99.90;;;;;;5025031;28;20628;-78
2021/08/25 00:40:37;;;;;;;18.13;13.97;;;11.90;99.90;;;;;;5028329;28;20222;-78
2021/08/25 00:43:05;;;;;;;16.20;13.17;;;11.90;99.90;;;;;;5036411;28;20176;-78
2021/08/25 00:45:32;;;;;;;17.42;13.20;;;12.10;99.90;;;;;;5042829;28;20202;-79
2021/08/25 00:47:57;;;;;;;14.20;12.80;;;12.10;99.90;;;;;;5043954;28;20692;-77
2021/08/25 00:50:23;;;;;;;17.53;14.00;;;12.00;99.90;;;;;;5042911;28;20197;-78
2021/08/25 00:52:48;;;;;;;18.33;15.07;;;12.20;99.90;;;;;;5042386;28;20187;-78
2021/08/25 00:55:15;;;;;;;17.00;13.27;;;12.00;99.90;;;;;;5026542;28;20591;-78
2021/08/25 00:57:42;;;;;;;15.63;13.50;;;12.10;99.90;;;;;;5030608;28;20194;-79
2021/08/25 01:00:10;;;;;;;19.98;16.02;;;12.10;99.90;;;;;;5039642;28;20890;-78
2021/08/25 01:02:55;;;;;;;20.05;15.00;;;12.00;99.90;;;;;;5042361;28;20236;-78
2021/08/25 01:05:23;;;;;;;18.58;14.20;;;11.80;99.90;;;;;;5042600;28;20286;-77
2021/08/25 01:07:49;;;;;;;20.17;15.33;;;11.80;99.90;;;;;;5043643;28;20187;-78
2021/08/25 01:10:27;;;;;;;18.63;14.60;;;12.00;99.90;;;;;;5026160;28;20794;-78
2021/08/25 01:13:03;;;;;;;18.30;14.95;;;11.80;99.90;;;;;;5026945;28;20211;-77
2021/08/25 01:15:34;;;;;;;20.17;16.38;;;11.80;99.90;;;;;;5039541;28;20788;-77
2021/08/25 01:18:01;;;;;;;20.00;16.45;;;11.90;99.90;;;;;;5045502;28;20277;-77
2021/08/25 01:20:28;;;;;;;20.83;16.38;;;12.00;99.90;;;;;;5045732;28;20276;-77
2021/08/25 01:22:53;;;;;;;18.17;14.10;;;11.80;99.90;;;;;;5045426;28;20240;-77
2021/08/25 01:25:21;;;;;;;18.27;14.33;;;11.90;99.90;;;;;;5025989;28;20192;-77
2021/08/25 01:27:54;;;;;;;17.42;14.93;;;11.90;99.90;;;;;;5022173;28;20425;-77
2021/08/25 01:30:23;;;;;;;18.42;15.63;;;11.80;99.90;;;;;;5023715;28;20695;-77
2021/08/25 01:32:49;;;;;;;19.10;14.63;;;12.00;99.90;;;;;;5027081;28;20196;-77
2021/08/25 01:35:15;;;;;;;16.50;14.33;;;11.90;99.90;;;;;;5037515;28;20203;-77
2021/08/25 01:37:41;;;;;;;18.30;15.60;;;11.90;99.90;;;;;;5041400;28;20428;-76
2021/08/25 01:40:08;;;;;;;18.88;15.38;;;12.00;99.90;;;;;;5043364;28;20583;-77
2021/08/25 01:42:33;;;;;;;16.90;14.30;;;11.70;99.90;;;;;;5037565;28;20217;-77
2021/08/25 01:44:59;;;;;;;16.93;14.00;;;11.80;99.90;;;;;;5026819;28;20230;-77
2021/08/25 01:47:25;;;;;;;18.27;13.67;;;11.70;99.90;;;;;;5025279;28;20188;-77
2021/08/25 01:49:54;;;;;;;16.13;13.18;;;12.00;99.90;;;;;;5025005;28;20195;-78
2021/08/25 01:52:20;;;;;;;16.27;13.30;;;11.90;99.90;;;;;;5021490;28;20698;-78
2021/08/25 01:54:47;;;;;;;17.13;13.70;;;11.80;99.90;;;;;;5040469;28;20281;-78
2021/08/25 01:57:13;;;;;;;16.33;12.95;;;11.90;99.90;;;;;;5041618;28;20433;-78
2021/08/25 01:59:39;;;;;;;14.50;12.97;;;11.80;99.90;;;;;;5046472;28;20226;-78
2021/08/25 02:02:05;;;;;;;16.77;13.10;;;11.90;99.90;;;;;;5046613;28;20192;-77
2021/08/25 02:04:32;;;;;;;16.08;13.30;;;11.50;99.90;;;;;;5043915;28;20189;-77
2021/08/25 02:06:57;;;;;;;18.05;13.55;;;11.80;99.90;;;;;;5042805;28;20554;-77
2021/08/25 02:09:23;;;;;;;15.60;13.37;;;11.60;99.90;;;;;;5050237;28;20186;-77
2021/08/25 02:11:49;;;;;;;19.63;14.70;;;11.50;99.90;;;;;;5050061;28;20182;-77
2021/08/25 02:14:15;;;;;;;16.83;13.23;;;11.40;99.90;;;;;;5032926;28;20560;-77
2021/08/25 02:16:41;;;;;;;17.10;13.60;;;11.60;99.90;;;;;;5030218;28;20425;-78
2021/08/25 02:19:07;;;;;;;18.00;13.73;;;11.40;99.90;;;;;;5030090;28;20461;-77
2021/08/25 02:21:33;;;;;;;18.10;15.00;;;11.40;99.90;;;;;;5030185;28;20181;-77
2021/08/25 02:23:58;;;;;;;16.38;13.27;;;11.60;99.90;;;;;;5041639;28;20978;-78
2021/08/25 02:26:24;;;;;;;17.30;13.30;;;11.50;99.90;;;;;;5049904;28;20180;-77
2021/08/25 02:28:51;;;;;;;15.60;12.40;;;11.40;99.90;;;;;;5049940;28;20174;-78
2021/08/25 02:31:17;;;;;;;15.85;13.88;;;11.70;99.90;;;;;;5050150;28;20186;-78
2021/08/25 02:33:43;;;;;;;16.73;12.73;;;11.30;99.90;;;;;;5042351;28;20206;-77
2021/08/25 02:36:10;;;;;;;17.00;13.50;;;11.40;99.90;;;;;;5040933;28;20448;-78
2021/08/25 02:38:36;;;;;;;17.33;14.15;;;11.50;99.90;;;;;;5049834;28;20999;-78
2021/08/25 02:41:03;;;;;;;15.32;12.93;;;11.30;99.90;;;;;;5046097;28;20183;-78
2021/08/25 02:43:29;;;;;;;18.20;14.05;;;11.30;99.90;;;;;;5030011;28;20187;-79
2021/08/25 02:45:54;;;;;;;19.30;14.60;;;11.40;99.90;;;;;;5029774;28;20185;-79
2021/08/25 02:48:20;;;;;;;15.90;13.33;;;11.50;99.90;;;;;;5037662;28;20226;-79
2021/08/25 02:50:45;;;;;;;18.87;14.27;;;11.40;99.90;;;;;;5053859;28;20182;-79
2021/08/25 02:53:11;;;;;;;18.07;13.67;;;11.60;99.90;;;;;;5054000;28;20195;-78
2021/08/25 02:55:37;;;;;;;18.73;15.03;;;11.40;99.90;;;;;;5053077;28;20185;-78
2021/08/25 02:58:02;;;;;;;22.53;14.97;;;11.40;99.90;;;;;;5053297;28;20218;-78
2021/08/25 03:00:28;;;;;;;21.43;15.57;;;11.50;99.90;;;;;;5043768;28;20237;-78
2021/08/25 03:02:54;;;;;;;21.67;15.73;;;11.30;99.90;;;;;;5033234;28;20441;-79
2021/08/25 03:05:19;;;;;;;19.23;14.73;;;11.40;99.90;;;;;;5033220;28;20181;-79
2021/08/25 03:07:45;;;;;;;20.10;13.40;;;11.30;99.90;;;;;;5050379;28;20209;-79
2021/08/25 03:10:10;;;;;;;19.70;15.80;;;11.60;99.90;;;;;;5044205;28;20187;-79
2021/08/25 03:12:36;;;;;;;23.07;16.23;;;11.50;99.90;;;;;;5049553;28;20653;-78
2021/08/25 03:15:04;;;;;;;21.77;17.13;;;11.40;99.90;;;;;;5045981;28;20554;-78
2021/08/25 03:17:30;;;;;;;21.50;16.33;;;11.50;99.90;;;;;;5045592;28;20193;-79
2021/08/25 03:19:55;;;;;;;20.83;15.77;;;11.50;99.90;;;;;;5043777;28;20559;-78
2021/08/25 03:22:21;;;;;;;22.47;16.43;;;11.60;99.90;;;;;;5045512;28;20563;-78
2021/08/25 03:24:46;;;;;;;22.83;16.63;;;11.60;99.90;;;;;;5047985;28;20266;-78
2021/08/25 03:27:12;;;;;;;23.07;17.50;;;11.30;99.90;;;;;;5047088;28;20269;-78
2021/08/25 03:29:37;;;;;;;18.90;14.77;;;11.40;99.90;;;;;;5045508;28;20196;-78
2021/08/25 03:32:03;;;;;;;23.67;17.10;;;11.40;99.90;;;;;;5044407;28;20253;-78
2021/08/25 03:34:29;;;;;;;20.60;15.40;;;11.50;99.90;;;;;;5042471;28;20192;-79
2021/08/25 03:36:54;;;;;;;18.93;14.87;;;11.50;99.90;;;;;;5038478;28;20510;-78
2021/08/25 03:39:19;;;;;;;22.27;16.53;;;11.40;99.90;;;;;;5046224;28;20205;-78
2021/08/25 03:41:45;;;;;;;20.73;15.33;;;11.50;99.90;;;;;;5051318;28;20184;-78
2021/08/25 03:44:10;;;;;;;23.30;16.13;;;11.50;99.90;;;;;;5048324;28;20254;-78
2021/08/25 03:46:37;;;;;;;23.13;17.47;;;11.40;99.90;;;;;;5043423;28;20211;-78
2021/08/25 03:49:02;;;;;;;25.25;17.00;;;11.50;99.90;;;;;;5044919;28;20235;-77
2021/08/25 03:51:28;;;;;;;22.83;17.50;;;11.40;99.90;;;;;;5042446;28;20196;-79
2021/08/25 03:53:54;;;;;;;24.50;17.20;;;11.20;99.90;;;;;;5046685;28;20421;-78
2021/08/25 03:56:19;;;;;;;25.63;17.80;;;11.20;99.90;;;;;;5046704;28;20539;-78
2021/08/25 03:58:44;;;;;;;24.43;17.27;;;11.40;99.90;;;;;;5046503;28;20202;-78
2021/08/25 04:01:10;;;;;;;24.53;18.17;;;11.50;99.90;;;;;;5042460;28;20187;-78
2021/08/25 04:03:35;;;;;;;27.77;20.00;;;11.40;99.90;;;;;;5047806;28;20183;-77
2021/08/25 04:06:03;;;;;;;28.87;19.03;;;11.20;99.90;;;;;;5056034;28;20541;-77
2021/08/25 04:08:28;;;;;;;24.60;17.25;;;11.50;99.90;;;;;;5044519;28;20676;-78
2021/08/25 04:10:54;;;;;;;23.27;17.63;;;11.50;99.90;;;;;;5041979;28;20191;-78
2021/08/25 04:13:19;;;;;;;27.90;18.37;;;11.40;99.90;;;;;;5046303;28;20187;-78
2021/08/25 04:15:45;;;;;;;23.83;17.63;;;11.20;99.90;;;;;;5047944;28;20375;-77
2021/08/25 04:18:10;;;;;;;26.37;18.40;;;11.20;99.90;;;;;;5044079;28;20183;-78
2021/08/25 04:20:36;;;;;;;22.73;17.20;;;11.50;99.90;;;;;;5041978;28;20187;-78
2021/08/25 04:23:02;;;;;;;23.63;17.70;;;11.40;99.90;;;;;;5038522;28;20185;-78
2021/08/25 04:25:27;;;;;;;24.00;15.97;;;11.30;99.90;;;;;;5042695;28;20211;-78
2021/08/25 04:27:53;;;;;;;19.70;15.83;;;11.30;99.90;;;;;;5042695;28;20860;-78
2021/08/25 04:30:18;;;;;;;23.53;16.90;;;11.30;99.90;;;;;;5045631;28;20192;-78
2021/08/25 04:32:44;;;;;;;21.10;14.77;;;11.40;99.90;;;;;;5047474;28;20192;-78
2021/08/25 04:35:09;;;;;;;17.27;14.73;;;11.40;99.90;;;;;;5045895;28;20178;-79
2021/08/25 04:37:35;;;;;;;19.37;15.30;;;11.20;99.90;;;;;;5044169;28;20440;-78
2021/08/25 04:40:00;;;;;;;18.60;14.50;;;11.10;99.90;;;;;;5044350;28;20221;-78
2021/08/25 04:42:26;;;;;;;24.17;15.97;;;11.10;99.90;;;;;;5042460;28;20189;-78
2021/08/25 04:44:51;;;;;;;23.50;16.93;;;11.00;99.90;;;;;;5045517;28;20196;-78
2021/08/25 04:47:17;;;;;;;22.00;16.60;;;11.10;99.90;;;;;;5039199;28;20545;-78
2021/08/25 04:49:42;;;;;;;19.90;16.67;;;10.90;99.90;;;;;;5041574;28;20188;-79
2021/08/25 04:52:08;;;;;;;27.53;17.67;;;11.00;99.90;;;;;;5042107;28;20208;-78
2021/08/25 04:54:33;;;;;;;24.40;18.43;;;10.90;99.90;;;;;;5040749;28;20187;-82
2021/08/25 04:56:59;;;;;;;22.50;16.70;;;11.20;99.90;;;;;;5046202;28;20273;-82
2021/08/25 04:59:24;;;;;;;22.57;16.57;;;11.10;99.90;;;;;;5050557;28;20208;-81
2021/08/25 05:01:50;;;;;;;25.07;18.93;;;11.20;99.90;;;;;;5043890;28;20277;-80
2021/08/25 05:04:16;;;;;;;23.90;17.35;;;11.20;99.90;;;;;;5040991;28;20187;-81
2021/08/25 05:06:42;;;;;;;24.73;17.73;;;11.40;99.90;;;;;;5047180;28;20212;-81
2021/08/25 05:09:07;;;;;;;29.87;19.97;;;11.40;99.90;;;;;;5060440;28;20193;-75
2021/08/25 05:11:33;;;;;;;23.97;17.90;;;11.00;99.90;;;;;;5045911;28;20193;-86
2021/08/25 05:13:58;;;;;;;28.57;18.60;;;11.40;99.90;;;;;;5039669;28;20193;-82
2021/08/25 05:16:23;;;;;;;28.77;19.50;;;11.50;99.90;;;;;;5028539;28;20197;-84
2021/08/25 05:18:49;;;;;;;28.93;20.07;;;11.50;99.90;;;;;;5046609;28;20216;-81
2021/08/25 05:21:15;;;;;;;23.60;17.87;;;11.60;99.90;;;;;;5044885;28;20294;-84
2021/08/25 05:23:40;;;;;;;27.20;18.67;;;11.40;99.90;;;;;;5034263;28;20184;-84
2021/08/25 05:26:06;;;;;;;27.50;18.83;;;11.70;99.90;;;;;;5037307;28;20220;-83
2021/08/25 05:28:33;;;;;;;26.98;18.98;;;11.60;99.90;;;;;;5039198;28;20196;-83
2021/08/25 05:30:59;;;;;;;21.27;16.65;;;11.80;99.90;;;;;;5044074;28;20206;-83
2021/08/25 05:33:24;;;;;;;25.73;19.07;;;11.60;99.90;;;;;;5020976;28;20546;-81
2021/08/25 05:35:50;;;;;;;20.80;16.97;;;11.80;99.90;;;;;;5045500;28;20567;-79
2021/08/25 05:38:15;;;;;;;26.17;20.60;;;12.00;99.90;;;;;;5041142;28;20194;-81
2021/08/25 05:40:41;;;;;;;22.00;16.87;;;12.10;99.90;;;;;;5034724;28;20188;-83
2021/08/25 05:43:06;;;;;;;26.67;17.07;;;11.90;99.90;;;;;;5033512;28;20552;-81
2021/08/25 05:45:32;;;;;;;20.73;18.20;;;12.30;99.90;;;;;;5043058;28;20246;-83
2021/08/25 05:47:58;;;;;;;22.07;16.80;;;12.50;99.90;;;;;;5042093;28;20234;-83
2021/08/25 05:50:25;;;;;;;20.43;17.17;;;12.80;99.90;;;;;;5042359;28;20256;-83
2021/08/25 05:52:52;;;;;;;19.47;15.20;;;13.00;99.90;;;;;;5041186;28;20860;-83
2021/08/25 05:55:17;;;;;;;17.97;15.20;;;13.20;99.90;;;;;;5041446;28;20441;-83
2021/08/25 05:57:46;;;;;;;18.27;15.07;;;13.90;99.90;;;;;;5044406;28;20444;-83
2021/08/25 06:00:19;;;;;;;16.00;14.40;;;14.40;99.90;;;;;;5044130;28;20476;-82
2021/08/25 06:02:44;;;;;;;15.97;13.37;;;14.90;99.90;;;;;;5036757;28;20442;-83
2021/08/25 06:05:14;;;;;;;14.37;12.90;;;15.10;99.90;;;;;;5041423;28;20425;-84
2021/08/25 06:07:41;;;;;;;14.33;12.77;;;15.30;99.90;;;;;;5043915;28;20183;-84
2021/08/25 06:10:07;;;;;;;14.20;12.60;;;15.10;99.90;;;;;;5049018;28;20441;-83
2021/08/25 06:12:33;;;;;;;14.43;13.03;;;15.30;99.90;;;;;;5042594;28;20548;-83
2021/08/25 06:15:00;;;;;;;13.97;12.53;;;15.00;99.90;;;;;;5038398;28;20885;-83
2021/08/25 06:17:25;;;;;;;14.87;13.33;;;15.00;99.90;;;;;;5044145;28;20922;-80
2021/08/25 06:19:51;;;;;;;17.23;15.37;;;15.00;99.90;;;;;;5040749;28;20475;-81
2021/08/25 06:22:17;;;;;;;15.17;13.77;;;14.90;99.90;;;;;;5038895;28;20218;-81
2021/08/25 06:24:43;;;;;;;15.90;14.20;;;14.80;99.90;;;;;;5039224;28;20467;-79
2021/08/25 06:27:09;;;;;;;15.97;13.57;;;14.90;99.90;;;;;;5041962;28;20441;-80
2021/08/25 06:29:34;;;;;;;15.87;13.60;;;14.80;99.90;;;;;;5052973;28;20197;-81
2021/08/25 06:32:00;;;;;;;15.83;14.33;;;14.60;99.90;;;;;;5041980;28;20824;-80
2021/08/25 06:34:25;;;;;;;17.00;13.40;;;14.40;99.90;;;;;;5035445;28;20207;-79
2021/08/25 06:36:51;;;;;;;16.23;13.60;;;14.60;99.90;;;;;;5036444;28;20186;-81
2021/08/25 06:39:17;;;;;;;17.33;13.50;;;14.60;99.90;;;;;;5038664;28;20305;-82
2021/08/25 06:41:42;;;;;;;14.57;12.87;;;14.10;99.90;;;;;;5045138;28;20193;-82
2021/08/25 06:44:08;;;;;;;15.50;13.87;;;14.70;99.90;;;;;;5043859;28;20206;-81
2021/08/25 06:46:33;;;;;;;16.43;13.80;;;14.80;99.90;;;;;;5042082;28;20613;-81
2021/08/25 06:48:59;;;;;;;20.50;12.83;;;14.70;99.90;;;;;;5033775;28;20226;-82
2021/08/25 06:51:24;;;;;;;13.93;12.53;;;14.60;99.90;;;;;;5040475;28;20235;-82
2021/08/25 06:53:50;;;;;;;14.03;12.47;;;14.60;99.90;;;;;;5045324;28;20856;-82
2021/08/25 06:56:15;;;;;;;14.33;12.80;;;15.00;99.90;;;;;;5046057;28;20605;-82
2021/08/25 06:58:41;;;;;;;14.00;12.70;;;15.00;99.90;;;;;;5043670;28;20568;-83
2021/08/25 07:01:06;;;;;;;13.20;11.90;;;15.00;99.90;;;;;;5040555;28;20926;-83
2021/08/25 07:03:32;;;;;;;12.43;11.23;;;15.00;99.90;;;;;;5053125;28;20190;-85
2021/08/25 07:05:57;;;;;;;13.20;11.90;;;14.90;99.90;;;;;;5045853;28;20240;-81
2021/08/25 07:08:23;;;;;;;26.70;17.40;;;14.80;99.90;;;;;;5040600;28;20543;-79
2021/08/25 07:10:49;;;;;;;11.60;10.40;;;14.70;99.90;;;;;;5043662;28;20665;-76
2021/08/25 07:13:14;;;;;;;16.93;14.30;;;14.90;99.90;;;;;;5040302;28;20923;-83
2021/08/25 07:15:40;;;;;;;11.70;10.50;;;14.80;99.90;;;;;;5043924;28;20175;-80
2021/08/25 07:18:06;;;;;;;11.50;10.10;;;15.10;99.90;;;;;;5041113;28;20186;-79
2021/08/25 07:20:32;;;;;;;10.10;9.10;;;14.90;99.90;;;;;;5041740;28;20460;-79
2021/08/25 07:22:58;;;;;;;9.50;8.60;;;15.20;99.90;;;;;;5034635;28;20423;-79
2021/08/25 07:25:23;;;;;;;9.03;8.10;;;15.00;99.90;;;;;;5036809;28;20433;-79
2021/08/25 07:27:49;;;;;;;8.93;8.13;;;15.20;99.90;;;;;;5037150;28;20279;-76
2021/08/25 07:30:15;;;;;;;8.93;8.10;;;15.40;99.90;;;;;;5041998;28;20193;-78
2021/08/25 07:32:41;;;;;;;9.20;7.13;;;15.40;99.90;;;;;;5031208;28;20278;-82
2021/08/25 07:35:08;;;;;;;8.70;7.83;;;15.50;99.90;;;;;;5050207;28;20213;-78
2021/08/25 07:37:34;;;;;;;8.57;7.77;;;15.70;99.90;;;;;;5044811;28;20436;-79
2021/08/25 07:40:00;;;;;;;8.60;7.80;;;15.60;99.90;;;;;;5047765;28;21019;-80
2021/08/25 07:42:25;;;;;;;7.53;6.83;;;15.70;99.90;;;;;;5045010;28;20425;-80
2021/08/25 07:44:51;;;;;;;8.87;8.07;;;15.90;99.90;;;;;;5037601;28;20190;-79
2021/08/25 07:47:16;;;;;;;9.23;6.70;;;15.90;99.90;;;;;;5045769;28;20530;-80
2021/08/25 07:49:42;;;;;;;7.43;6.73;;;15.90;99.90;;;;;;5049096;28;20193;-80
2021/08/25 07:52:07;;;;;;;8.20;7.40;;;16.10;99.90;;;;;;5045796;28;20225;-85
2021/08/25 07:54:33;;;;;;;9.30;6.97;;;16.30;99.90;;;;;;5032771;28;20190;-79
2021/08/25 07:56:59;;;;;;;7.70;7.00;;;16.20;99.90;;;;;;5040060;28;20183;-78
2021/08/25 07:59:24;;;;;;;6.83;6.23;;;16.40;99.90;;;;;;5046197;28;20215;-89
2021/08/25 08:01:50;;;;;;;7.73;7.13;;;16.50;99.90;;;;;;5047694;28;20189;-82
2021/08/25 08:04:15;;;;;;;7.57;6.47;;;16.80;99.90;;;;;;5042943;28;20183;-81
2021/08/25 08:06:41;;;;;;;7.37;6.77;;;16.70;99.90;;;;;;5047623;28;20178;-82
2021/08/25 08:09:06;;;;;;;8.17;6.57;;;16.70;99.90;;;;;;5044811;28;20190;-80
2021/08/25 08:11:32;;;;;;;6.87;6.27;;;16.90;99.90;;;;;;5040298;28;20691;-83
2021/08/25 08:13:57;;;;;;;7.47;6.83;;;16.80;99.90;;;;;;5047794;28;20551;-85
2021/08/25 08:16:23;;;;;;;7.50;6.80;;;17.20;98.20;;;;;;5041354;28;20218;-89
2021/08/25 08:18:59;;;;;;;7.50;6.80;;;17.10;97.70;;;;;;5038348;28;20211;-81
2021/08/25 08:21:26;;;;;;;7.70;6.30;;;17.20;98.90;;;;;;5041379;28;20273;-82
2021/08/25 08:23:52;;;;;;;6.47;5.93;;;17.20;97.60;;;;;;5047852;28;20464;-81
2021/08/25 08:26:18;;;;;;;6.23;5.60;;;17.30;97.10;;;;;;5043292;28;20474;-87
2021/08/25 08:28:43;;;;;;;6.53;5.93;;;17.40;96.00;;;;;;5037247;28;20458;-79
2021/08/25 08:31:10;;;;;;;7.63;6.80;;;17.50;93.80;;;;;;5039377;28;20221;-86
2021/08/25 08:33:39;;;;;;;6.00;5.20;;;17.70;93.50;;;;;;5047545;28;20621;-82
2021/08/25 08:36:04;;;;;;;6.53;5.93;;;17.50;92.90;;;;;;5047775;28;20438;-85
2021/08/25 08:38:30;;;;;;;6.77;6.27;;;18.20;92.20;;;;;;5043863;28;20486;-81
2021/08/25 08:40:55;;;;;;;5.93;5.43;;;18.20;90.70;;;;;;5042636;28;20172;-80
2021/08/25 08:43:21;;;;;;;5.77;5.27;;;18.30;90.90;;;;;;5042062;28;20269;-82
2021/08/25 08:45:47;;;;;;;5.20;4.70;;;18.50;88.30;;;;;;5041250;28;20670;-81
2021/08/25 08:48:14;;;;;;;7.73;5.00;;;18.60;88.00;;;;;;5045446;28;20224;-77
2021/08/25 08:50:43;;;;;;;5.93;5.27;;;19.20;84.80;;;;;;5047358;28;20188;-82
2021/08/25 08:53:10;;;;;;;10.17;5.53;;;19.70;78.50;;;;;;5045444;28;20482;-78
2021/08/25 08:55:37;;;;;;;5.70;5.30;;;20.30;73.90;;;;;;5041855;28;20429;-84
2021/08/25 08:58:03;;;;;;;6.30;5.70;;;20.50;73.00;;;;;;5043927;28;20435;-80
2021/08/25 09:00:28;;;;;;;6.50;6.00;;;21.50;69.90;;;;;;5041574;28;21013;-80
2021/08/25 09:02:54;;;;;;;7.00;6.40;;;22.20;66.80;;;;;;5045674;28;20475;-82
2021/08/25 09:05:31;;;;;;;7.67;7.00;;;23.40;70.60;;;;;;5045317;28;20263;-78
2021/08/25 09:08:00;;;;;;;6.63;6.03;;;24.70;60.00;;;;;;5039898;28;20431;-82
2021/08/25 09:10:34;;;;;;;7.70;7.00;;;26.20;59.70;;;;;;5041315;28;20434;-80
2021/08/25 09:13:05;;;;;;;7.17;6.60;;;27.70;51.30;;;;;;5043679;28;20432;-82
2021/08/25 09:15:34;;;;;;;6.37;5.67;;;28.90;51.40;;;;;;5041663;28;20447;-82
2021/08/25 09:18:03;;;;;;;6.20;5.60;;;29.90;45.70;;;;;;5037548;28;20842;-83
2021/08/25 09:20:32;;;;;;;6.77;6.17;;;31.10;44.60;;;;;;5044766;28;20483;-80
2021/08/25 09:23:17;;;;;;;7.03;6.43;;;31.80;39.70;;;;;;5044998;28;21062;-82
2021/08/25 09:25:48;;;;;;;7.37;6.50;;;31.90;38.60;;;;;;5041304;28;20926;-79
2021/08/25 09:28:16;;;;;;;6.53;6.03;;;32.30;38.40;;;;;;5041325;28;20428;-82
2021/08/25 09:30:50;;;;;;;7.03;6.50;;;33.20;37.10;;;;;;5041158;28;20433;-83
2021/08/25 09:33:16;;;;;;;5.93;5.43;;;33.50;35.70;;;;;;5041345;28;20893;-82
2021/08/25 09:35:42;;;;;;;6.33;5.83;;;33.60;36.20;;;;;;5041269;28;20472;-84
2021/08/25 09:38:14;;;;;;;6.00;5.53;;;34.30;35.30;;;;;;5042991;28;20973;-85
2021/08/25 09:40:49;;;;;;;6.63;6.13;;;34.20;33.50;;;;;;5044583;28;20473;-84
2021/08/25 09:43:32;;;;;;;6.67;6.17;;;34.00;32.90;;;;;;5044596;28;20428;-81
2021/08/25 09:46:07;;;;;;;6.03;5.53;;;33.40;33.50;;;;;;5046278;28;20428;-83
2021/08/25 09:48:38;;;;;;;5.60;5.20;;;33.80;34.20;;;;;;5039389;28;20476;-82
2021/08/25 09:51:04;;;;;;;6.20;5.70;;;34.40;32.40;;;;;;5042777;28;20912;-83
2021/08/25 09:53:30;;;;;;;5.03;4.67;;;33.70;31.60;;;;;;5041428;28;20440;-87
2021/08/25 09:55:55;;;;;;;4.90;4.50;;;34.70;33.70;;;;;;5041093;28;20430;-82
2021/08/25 09:58:24;;;;;;;5.07;4.67;;;35.40;31.20;;;;;;5045499;28;20544;-85
2021/08/25 10:00:50;;;;;;;5.03;4.50;;;36.10;30.60;;;;;;5043573;28;20193;-85
2021/08/25 10:03:16;;;;;;;5.57;5.17;;;37.30;29.90;;;;;;5040932;28;20880;-84
2021/08/25 10:05:46;;;;;;;4.60;4.30;;;37.30;28.30;;;;;;5046104;28;20421;-84
2021/08/25 10:08:13;;;;;;;5.30;4.87;;;37.40;27.60;;;;;;5051179;28;20270;-88
2021/08/25 10:10:39;;;;;;;5.70;5.30;;;38.00;27.60;;;;;;5049202;28;20439;-87
2021/08/25 10:13:04;;;;;;;8.97;5.43;;;37.50;26.50;;;;;;5048629;28;20496;-85
2021/08/25 10:15:30;;;;;;;5.03;4.43;;;38.00;27.90;;;;;;5039660;28;20587;-85
2021/08/25 10:17:56;;;;;;;4.80;4.50;;;37.50;26.90;;;;;;5057095;28;20188;-86
2021/08/25 10:20:33;;;;;;;5.07;4.67;;;36.60;26.60;;;;;;5042530;28;20245;-80
2021/08/25 10:22:59;;;;;;;5.77;5.17;;;35.00;27.40;;;;;;5040053;28;20443;-83
2021/08/25 10:25:26;;;;;;;5.07;4.63;;;33.60;29.40;;;;;;5046175;28;20791;-87
2021/08/25 10:28:05;;;;;;;5.17;4.67;;;33.30;31.50;;;;;;5052871;28;20527;-87
2021/08/25 10:30:52;;;;;;;5.43;5.03;;;33.10;30.70;;;;;;5034951;28;20764;-81
2021/08/25 10:33:17;;;;;;;4.87;4.47;;;32.00;30.60;;;;;;5046858;28;20439;-86
2021/08/25 10:35:44;;;;;;;4.83;4.43;;;32.30;33.20;;;;;;5053473;28;20429;-82
2021/08/25 10:38:21;;;;;;;6.30;5.27;;;33.00;32.10;;;;;;5048351;28;20198;-89
2021/08/25 10:40:49;;;;;;;4.47;4.17;;;32.80;32.70;;;;;;5036474;28;20482;-83
2021/08/25 10:43:38;;;;;;;5.60;5.10;;;33.70;31.70;;;;;;5045606;28;20433;-87
2021/08/25 10:46:05;;;;;;;4.87;4.40;;;34.20;30.00;;;;;;5037726;28;20429;-82
2021/08/25 10:48:43;;;;;;;4.90;4.40;;;34.60;29.40;;;;;;5039099;28;20484;-86
2021/08/25 10:51:32;;;;;;;5.30;4.90;;;35.90;29.60;;;;;;5039927;28;21490;-84
2021/08/25 10:54:00;;;;;;;5.03;4.53;;;35.30;28.10;;;;;;5043573;28;20443;-83
2021/08/25 10:56:29;;;;;;;5.07;4.67;;;36.10;27.80;;;;;;5038383;28;20917;-87
2021/08/25 10:59:04;;;;;;;4.83;4.40;;;36.10;28.90;;;;;;5041534;28;20819;-81
2021/08/25 11:01:36;;;;;;;5.30;4.80;;;36.70;26.70;;;;;;5040728;28;20436;-81
2021/08/25 11:04:03;;;;;;;5.07;4.60;;;34.10;28.10;;;;;;5043010;28;20432;-82
2021/08/25 11:06:34;;;;;;;4.77;4.33;;;33.60;29.60;;;;;;5045597;28;20853;-83
2021/08/25 11:09:13;;;;;;;5.03;4.53;;;33.50;29.40;;;;;;5046807;28;20464;-82
2021/08/25 11:11:39;;;;;;;4.50;4.20;;;34.50;29.10;;;;;;5044637;28;20429;-82
2021/08/25 11:14:04;;;;;;;4.63;4.23;;;33.60;29.00;;;;;;5049602;28;20424;-82
2021/08/25 11:16:30;;;;;;;4.73;4.33;;;33.80;29.40;;;;;;5049545;28;20490;-82
2021/08/25 11:18:56;;;;;;;4.83;4.43;;;34.00;28.50;;;;;;5044292;28;20226;-78
2021/08/25 11:21:21;;;;;;;5.30;4.80;;;33.80;28.30;;;;;;5039792;28;20285;-83
2021/08/25 11:23:54;;;;;;;4.87;4.47;;;33.90;28.90;;;;;;5040383;28;20693;-81
2021/08/25 11:26:20;;;;;;;4.70;4.27;;;33.70;29.00;;;;;;5044906;28;20214;-80
2021/08/25 11:28:46;;;;;;;4.90;4.40;;;33.10;27.90;;;;;;5045948;28;20452;-79
2021/08/25 11:31:11;;;;;;;5.43;4.60;;;31.60;30.00;;;;;;5042081;28;20263;-81
2021/08/25 11:33:44;;;;;;;6.17;5.03;;;31.80;30.70;;;;;;5042270;28;20190;-83
2021/08/25 11:36:10;;;;;;;4.83;4.43;;;32.90;30.40;;;;;;5042560;28;20243;-81
2021/08/25 11:38:36;;;;;;;4.97;4.57;;;33.40;29.10;;;;;;5051634;28;20431;-82
2021/08/25 11:41:01;;;;;;;5.20;4.70;;;34.80;28.40;;;;;;5044322;28;20263;-81
2021/08/25 11:43:27;;;;;;;4.20;3.90;;;35.90;27.90;;;;;;5050123;28;20180;-87
2021/08/25 11:45:54;;;;;;;4.83;4.40;;;36.90;27.00;;;;;;5049182;28;20191;-79
2021/08/25 11:48:30;;;;;;;4.60;4.20;;;37.00;24.70;;;;;;5048743;28;20645;-82
2021/08/25 11:50:57;;;;;;;5.17;4.77;;;37.50;25.40;;;;;;5043681;28;20432;-85
2021/08/25 11:53:26;;;;;;;4.60;4.20;;;37.40;25.70;;;;;;5044443;28;20452;-87
2021/08/25 11:55:55;;;;;;;4.57;4.17;;;37.00;26.00;;;;;;5049738;28;20447;-88
2021/08/25 11:58:25;;;;;;;5.37;4.80;;;36.70;26.00;;;;;;5037489;28;20471;-89
2021/08/25 12:00:53;;;;;;;5.33;4.90;;;35.70;26.60;;;;;;5039606;28;20430;-89
2021/08/25 12:03:18;;;;;;;5.47;4.90;;;33.50;27.40;;;;;;5042272;28;20474;-82
2021/08/25 12:05:54;;;;;;;5.73;5.17;;;33.00;28.50;;;;;;5040564;28;20555;-78
2021/08/25 12:08:21;;;;;;;4.80;4.40;;;33.30;28.00;;;;;;5043171;28;20176;-87
2021/08/25 12:11:04;;;;;;;5.77;5.00;;;33.80;28.90;;;;;;5040744;28;20493;-88
2021/08/25 12:13:36;;;;;;;5.17;4.77;;;35.90;27.50;;;;;;5043158;28;20945;-85
2021/08/25 12:16:11;;;;;;;5.40;5.00;;;36.30;26.60;;;;;;5044026;28;20430;-79
2021/08/25 12:18:50;;;;;;;5.90;5.40;;;35.90;25.90;;;;;;5034654;28;20448;-82
2021/08/25 12:21:18;;;;;;;5.30;4.90;;;36.70;24.90;;;;;;5045397;28;20526;-90
2021/08/25 12:24:00;;;;;;;4.73;4.13;;;37.70;25.80;;;;;;5044666;28;21059;-82
2021/08/25 12:26:27;;;;;;;4.60;4.10;;;37.80;24.20;;;;;;5048382;28;20432;-90
2021/08/25 12:28:53;;;;;;;5.47;4.97;;;38.40;23.90;;;;;;5057605;28;20835;-91
2021/08/25 12:31:21;;;;;;;5.50;4.93;;;38.50;23.50;;;;;;5062452;28;20483;-83
2021/08/25 12:34:03;;;;;;;4.97;4.57;;;39.10;23.70;;;;;;5051871;28;20492;-90
2021/08/25 12:36:30;;;;;;;5.60;5.20;;;38.80;24.20;;;;;;5049159;28;20500;-84